Chase, Maryland
Current Conditions -  °F | °C
As of 11:54 AM on Friday 28 Nov 2014 (Local Time) from KMTN Reporting Station
Broken Clouds Broken Clouds  
Wind Chill: 28°   Ceiling: 5000
Heat Index: 37°   Visibility: 10mi
Dew Point: 21°   Wind: 17mph
Humidity: 52%   Direction: 290°WNW
Pressure: 30.28"   Gusts: 23mph
Location:  39.36°N, 76.37°W
Report Text: KMTN 281654Z 29015G20KT 10SM BKN050 03/M06 A3028
Loading
Personal Weather Stations






























Interactive Weather Map New forecast layout! Learn more

10-Day Weather Forecast

Advertisements
Track Severe Weather on mobile